sensor_id;sensor_type;location;lat;lon;timestamp;temperature;humidity
52743;DHT22;55583;53.012;6.556;2022-10-16T00:00:18;11.90;99.90
52743;DHT22;55583;53.012;6.556;2022-10-16T00:02:44;11.20;99.90
52743;DHT22;55583;53.012;6.556;2022-10-16T00:05:10;11.30;99.90
52743;DHT22;55583;53.012;6.556;2022-10-16T00:07:35;11.20;99.90
52743;DHT22;55583;53.012;6.556;2022-10-16T00:10:01;11.20;99.90
52743;DHT22;55583;53.012;6.556;2022-10-16T00:12:26;11.50;99.90
52743;DHT22;55583;53.012;6.556;2022-10-16T00:14:52;11.30;99.90
52743;DHT22;55583;53.012;6.556;2022-10-16T00:17:18;11.10;99.90
52743;DHT22;55583;53.012;6.556;2022-10-16T00:19:44;11.10;99.90
52743;DHT22;55583;53.012;6.556;2022-10-16T00:22:09;12.20;99.90
52743;DHT22;55583;53.012;6.556;2022-10-16T00:24:36;11.20;99.90
52743;DHT22;55583;53.012;6.556;2022-10-16T00:27:02;11.90;99.90
52743;DHT22;55583;53.012;6.556;2022-10-16T00:29:27;11.20;99.90
52743;DHT22;55583;53.012;6.556;2022-10-16T00:31:53;11.20;99.90
52743;DHT22;55583;53.012;6.556;2022-10-16T00:34:18;11.30;99.90
52743;DHT22;55583;53.012;6.556;2022-10-16T00:36:44;11.20;99.90
52743;DHT22;55583;53.012;6.556;2022-10-16T00:39:10;11.30;99.90
52743;DHT22;55583;53.012;6.556;2022-10-16T00:41:35;11.20;99.90
52743;DHT22;55583;53.012;6.556;2022-10-16T00:44:04;11.20;99.90
52743;DHT22;55583;53.012;6.556;2022-10-16T00:46:48;11.60;99.90
52743;DHT22;55583;53.012;6.556;2022-10-16T00:49:17;11.90;99.90
52743;DHT22;55583;53.012;6.556;2022-10-16T00:51:47;11.30;99.90
52743;DHT22;55583;53.012;6.556;2022-10-16T00:54:18;11.70;99.90
52743;DHT22;55583;53.012;6.556;2022-10-16T00:56:46;12.10;99.90
52743;DHT22;55583;53.012;6.556;2022-10-16T00:59:28;11.30;99.90
52743;DHT22;55583;53.012;6.556;2022-10-16T01:01:55;11.40;99.90
52743;DHT22;55583;53.012;6.556;2022-10-16T01:04:22;11.40;99.90
52743;DHT22;55583;53.012;6.556;2022-10-16T01:07:30;11.40;99.90
52743;DHT22;55583;53.012;6.556;2022-10-16T01:12:54;11.40;99.90
52743;DHT22;55583;53.012;6.556;2022-10-16T01:15:29;11.40;99.90
52743;DHT22;55583;53.012;6.556;2022-10-16T01:18:25;11.50;99.90
52743;DHT22;55583;53.012;6.556;2022-10-16T01:21:02;11.50;99.90
52743;DHT22;55583;53.012;6.556;2022-10-16T01:26:44;11.60;99.90
52743;DHT22;55583;53.012;6.556;2022-10-16T01:29:29;11.50;99.90
52743;DHT22;55583;53.012;6.556;2022-10-16T01:32:02;12.30;99.90
52743;DHT22;55583;53.012;6.556;2022-10-16T01:34:38;11.50;99.90
52743;DHT22;55583;53.012;6.556;2022-10-16T01:37:09;12.10;99.90
52743;DHT22;55583;53.012;6.556;2022-10-16T01:39:38;11.60;99.90
52743;DHT22;55583;53.012;6.556;2022-10-16T01:42:09;11.70;99.90
52743;DHT22;55583;53.012;6.556;2022-10-16T01:44:37;11.70;99.90
52743;DHT22;55583;53.012;6.556;2022-10-16T01:47:05;12.70;99.90
52743;DHT22;55583;53.012;6.556;2022-10-16T01:49:33;12.00;99.90
52743;DHT22;55583;53.012;6.556;2022-10-16T01:52:04;11.70;99.90
52743;DHT22;55583;53.012;6.556;2022-10-16T01:54:33;11.70;99.90
52743;DHT22;55583;53.012;6.556;2022-10-16T01:57:01;11.70;99.90
52743;DHT22;55583;53.012;6.556;2022-10-16T01:59:31;11.70;99.90
52743;DHT22;55583;53.012;6.556;2022-10-16T02:02:05;11.70;99.90
52743;DHT22;55583;53.012;6.556;2022-10-16T02:04:51;11.60;99.90
52743;DHT22;55583;53.012;6.556;2022-10-16T02:07:18;11.70;99.90
52743;DHT22;55583;53.012;6.556;2022-10-16T02:09:44;11.70;99.90
52743;DHT22;55583;53.012;6.556;2022-10-16T02:12:15;11.70;99.90
52743;DHT22;55583;53.012;6.556;2022-10-16T02:14:44;11.70;99.90
52743;DHT22;55583;53.012;6.556;2022-10-16T02:17:12;11.70;99.90
52743;DHT22;55583;53.012;6.556;2022-10-16T02:19:38;11.70;99.90
52743;DHT22;55583;53.012;6.556;2022-10-16T02:22:05;11.70;99.90
52743;DHT22;55583;53.012;6.556;2022-10-16T02:24:56;12.50;99.90
52743;DHT22;55583;53.012;6.556;2022-10-16T02:27:48;11.70;99.90
52743;DHT22;55583;53.012;6.556;2022-10-16T02:32:53;12.20;99.90
52743;DHT22;55583;53.012;6.556;2022-10-16T02:35:22;12.30;99.90
52743;DHT22;55583;53.012;6.556;2022-10-16T02:37:49;12.20;99.90
52743;DHT22;55583;53.012;6.556;2022-10-16T02:40:16;11.90;99.90
52743;DHT22;55583;53.012;6.556;2022-10-16T02:42:42;12.20;99.90
52743;DHT22;55583;53.012;6.556;2022-10-16T02:45:09;12.00;99.90
52743;DHT22;55583;53.012;6.556;2022-10-16T02:47:35;11.90;99.90
52743;DHT22;55583;53.012;6.556;2022-10-16T02:50:01;12.50;99.90
52743;DHT22;55583;53.012;6.556;2022-10-16T02:52:26;12.00;99.90
52743;DHT22;55583;53.012;6.556;2022-10-16T02:54:52;12.20;99.90
52743;DHT22;55583;53.012;6.556;2022-10-16T02:57:18;12.00;99.90
52743;DHT22;55583;53.012;6.556;2022-10-16T02:59:44;12.00;99.90
52743;DHT22;55583;53.012;6.556;2022-10-16T03:02:09;12.80;99.90
52743;DHT22;55583;53.012;6.556;2022-10-16T03:04:35;12.00;99.90
52743;DHT22;55583;53.012;6.556;2022-10-16T03:07:01;12.10;99.90
52743;DHT22;55583;53.012;6.556;2022-10-16T03:09:26;12.10;99.90
52743;DHT22;55583;53.012;6.556;2022-10-16T03:11:52;12.40;99.90
52743;DHT22;55583;53.012;6.556;2022-10-16T03:14:17;12.10;99.90
52743;DHT22;55583;53.012;6.556;2022-10-16T03:16:43;12.40;99.90
52743;DHT22;55583;53.012;6.556;2022-10-16T03:19:09;12.60;99.90
52743;DHT22;55583;53.012;6.556;2022-10-16T03:21:34;12.00;99.90
52743;DHT22;55583;53.012;6.556;2022-10-16T03:24:00;12.00;99.90
52743;DHT22;55583;53.012;6.556;2022-10-16T03:26:25;12.00;99.90
52743;DHT22;55583;53.012;6.556;2022-10-16T03:28:51;12.00;99.90
52743;DHT22;55583;53.012;6.556;2022-10-16T03:31:17;12.00;99.90
52743;DHT22;55583;53.012;6.556;2022-10-16T03:33:42;12.30;99.90
52743;DHT22;55583;53.012;6.556;2022-10-16T03:36:08;11.90;99.90
52743;DHT22;55583;53.012;6.556;2022-10-16T03:38:33;12.10;99.90
52743;DHT22;55583;53.012;6.556;2022-10-16T03:40:59;12.20;99.90
52743;DHT22;55583;53.012;6.556;2022-10-16T03:43:25;12.60;99.90
52743;DHT22;55583;53.012;6.556;2022-10-16T03:45:51;11.90;99.90
52743;DHT22;55583;53.012;6.556;2022-10-16T03:48:18;11.90;99.90
52743;DHT22;55583;53.012;6.556;2022-10-16T03:50:44;11.90;99.90
52743;DHT22;55583;53.012;6.556;2022-10-16T03:53:10;11.90;99.90
52743;DHT22;55583;53.012;6.556;2022-10-16T03:55:38;12.00;99.90
52743;DHT22;55583;53.012;6.556;2022-10-16T03:58:06;11.80;99.90
52743;DHT22;55583;53.012;6.556;2022-10-16T04:00:31;11.90;99.90
52743;DHT22;55583;53.012;6.556;2022-10-16T04:02:57;11.80;99.90
52743;DHT22;55583;53.012;6.556;2022-10-16T04:05:22;12.40;99.90
52743;DHT22;55583;53.012;6.556;2022-10-16T04:07:48;11.70;99.90
52743;DHT22;55583;53.012;6.556;2022-10-16T04:10:14;11.70;99.90
52743;DHT22;55583;53.012;6.556;2022-10-16T04:12:39;11.90;99.90
52743;DHT22;55583;53.012;6.556;2022-10-16T04:15:05;11.90;99.90
52743;DHT22;55583;53.012;6.556;2022-10-16T04:17:31;11.70;99.90
52743;DHT22;55583;53.012;6.556;2022-10-16T04:19:56;11.90;99.90
52743;DHT22;55583;53.012;6.556;2022-10-16T04:22:22;11.70;99.90
52743;DHT22;55583;53.012;6.556;2022-10-16T04:24:48;11.80;99.90
52743;DHT22;55583;53.012;6.556;2022-10-16T04:27:13;11.80;99.90
52743;DHT22;55583;53.012;6.556;2022-10-16T04:29:39;11.80;99.90
52743;DHT22;55583;53.012;6.556;2022-10-16T04:32:05;12.30;99.90
52743;DHT22;55583;53.012;6.556;2022-10-16T04:34:30;12.00;99.90
52743;DHT22;55583;53.012;6.556;2022-10-16T04:36:56;11.70;99.90
52743;DHT22;55583;53.012;6.556;2022-10-16T04:39:21;11.60;99.90
52743;DHT22;55583;53.012;6.556;2022-10-16T04:41:47;11.90;99.90
52743;DHT22;55583;53.012;6.556;2022-10-16T04:44:13;11.60;99.90
52743;DHT22;55583;53.012;6.556;2022-10-16T04:46:38;11.60;99.90
52743;DHT22;55583;53.012;6.556;2022-10-16T04:49:04;11.70;99.90
52743;DHT22;55583;53.012;6.556;2022-10-16T04:51:29;12.00;99.90
52743;DHT22;55583;53.012;6.556;2022-10-16T04:53:55;11.70;99.90
52743;DHT22;55583;53.012;6.556;2022-10-16T04:56:21;11.80;99.90
52743;DHT22;55583;53.012;6.556;2022-10-16T04:58:47;11.80;99.90
52743;DHT22;55583;53.012;6.556;2022-10-16T05:01:13;11.90;99.90
52743;DHT22;55583;53.012;6.556;2022-10-16T05:03:38;11.90;99.90
52743;DHT22;55583;53.012;6.556;2022-10-16T05:06:07;12.10;99.90
52743;DHT22;55583;53.012;6.556;2022-10-16T05:08:33;12.40;99.90
52743;DHT22;55583;53.012;6.556;2022-10-16T05:10:58;12.20;99.90
52743;DHT22;55583;53.012;6.556;2022-10-16T05:13:24;12.00;99.90
52743;DHT22;55583;53.012;6.556;2022-10-16T05:15:50;12.70;99.90
52743;DHT22;55583;53.012;6.556;2022-10-16T05:18:16;12.00;99.90
52743;DHT22;55583;53.012;6.556;2022-10-16T05:20:42;12.50;99.90
52743;DHT22;55583;53.012;6.556;2022-10-16T05:23:08;12.10;99.90
52743;DHT22;55583;53.012;6.556;2022-10-16T05:25:36;12.50;99.90
52743;DHT22;55583;53.012;6.556;2022-10-16T05:28:02;12.10;99.90
52743;DHT22;55583;53.012;6.556;2022-10-16T05:30:27;12.10;99.90
52743;DHT22;55583;53.012;6.556;2022-10-16T05:32:53;12.10;99.90
52743;DHT22;55583;53.012;6.556;2022-10-16T05:35:19;12.80;99.90
52743;DHT22;55583;53.012;6.556;2022-10-16T05:37:45;12.20;99.90
52743;DHT22;55583;53.012;6.556;2022-10-16T05:40:12;12.40;99.90
52743;DHT22;55583;53.012;6.556;2022-10-16T05:42:38;12.50;99.90
52743;DHT22;55583;53.012;6.556;2022-10-16T05:45:05;12.70;99.90
52743;DHT22;55583;53.012;6.556;2022-10-16T05:47:31;12.30;99.90
52743;DHT22;55583;53.012;6.556;2022-10-16T05:49:57;12.60;99.90
52743;DHT22;55583;53.012;6.556;2022-10-16T05:52:23;12.30;99.90
52743;DHT22;55583;53.012;6.556;2022-10-16T05:54:48;12.30;99.90
52743;DHT22;55583;53.012;6.556;2022-10-16T05:57:14;12.30;99.90
52743;DHT22;55583;53.012;6.556;2022-10-16T05:59:39;12.70;99.90
52743;DHT22;55583;53.012;6.556;2022-10-16T06:02:05;12.20;99.90
52743;DHT22;55583;53.012;6.556;2022-10-16T06:04:31;12.30;99.90
52743;DHT22;55583;53.012;6.556;2022-10-16T06:06:58;12.30;99.90
52743;DHT22;55583;53.012;6.556;2022-10-16T06:09:26;12.60;99.90
52743;DHT22;55583;53.012;6.556;2022-10-16T06:11:51;13.00;99.90
52743;DHT22;55583;53.012;6.556;2022-10-16T06:14:17;12.90;99.90
52743;DHT22;55583;53.012;6.556;2022-10-16T06:16:42;12.30;99.90
52743;DHT22;55583;53.012;6.556;2022-10-16T06:19:08;12.40;99.90
52743;DHT22;55583;53.012;6.556;2022-10-16T06:21:34;12.80;99.90
52743;DHT22;55583;53.012;6.556;2022-10-16T06:24:00;12.40;99.90
52743;DHT22;55583;53.012;6.556;2022-10-16T06:26:28;13.00;99.90
52743;DHT22;55583;53.012;6.556;2022-10-16T06:28:55;12.50;99.90
52743;DHT22;55583;53.012;6.556;2022-10-16T06:31:22;13.00;99.90
52743;DHT22;55583;53.012;6.556;2022-10-16T06:33:51;12.50;99.90
52743;DHT22;55583;53.012;6.556;2022-10-16T06:36:17;12.50;99.90
52743;DHT22;55583;53.012;6.556;2022-10-16T06:38:44;12.50;99.90
52743;DHT22;55583;53.012;6.556;2022-10-16T06:41:16;12.90;99.90
52743;DHT22;55583;53.012;6.556;2022-10-16T06:43:42;12.40;99.90
52743;DHT22;55583;53.012;6.556;2022-10-16T06:46:10;12.50;99.90
52743;DHT22;55583;53.012;6.556;2022-10-16T06:48:36;12.50;99.90
52743;DHT22;55583;53.012;6.556;2022-10-16T06:53:33;12.60;99.90
52743;DHT22;55583;53.012;6.556;2022-10-16T06:56:09;13.20;99.90
52743;DHT22;55583;53.012;6.556;2022-10-16T06:58:36;12.70;99.90
52743;DHT22;55583;53.012;6.556;2022-10-16T07:01:02;13.30;99.90
52743;DHT22;55583;53.012;6.556;2022-10-16T07:03:28;12.70;99.90
52743;DHT22;55583;53.012;6.556;2022-10-16T07:05:53;13.40;99.90
52743;DHT22;55583;53.012;6.556;2022-10-16T07:08:19;13.20;99.90
52743;DHT22;55583;53.012;6.556;2022-10-16T07:10:44;12.80;99.90
52743;DHT22;55583;53.012;6.556;2022-10-16T07:13:10;13.20;99.90
52743;DHT22;55583;53.012;6.556;2022-10-16T07:15:39;13.40;99.90
52743;DHT22;55583;53.012;6.556;2022-10-16T07:18:06;12.90;99.90
52743;DHT22;55583;53.012;6.556;2022-10-16T07:20:31;12.90;99.90
52743;DHT22;55583;53.012;6.556;2022-10-16T07:22:57;13.00;99.90
52743;DHT22;55583;53.012;6.556;2022-10-16T07:25:23;13.70;99.90
52743;DHT22;55583;53.012;6.556;2022-10-16T07:27:48;13.70;99.90
52743;DHT22;55583;53.012;6.556;2022-10-16T07:30:14;13.70;99.90
52743;DHT22;55583;53.012;6.556;2022-10-16T07:32:40;13.30;99.90
52743;DHT22;55583;53.012;6.556;2022-10-16T07:35:06;13.70;99.90
52743;DHT22;55583;53.012;6.556;2022-10-16T07:37:31;13.30;99.90
52743;DHT22;55583;53.012;6.556;2022-10-16T07:39:57;14.20;99.90
52743;DHT22;55583;53.012;6.556;2022-10-16T07:42:22;14.00;99.90
52743;DHT22;55583;53.012;6.556;2022-10-16T07:44:48;14.00;99.90
52743;DHT22;55583;53.012;6.556;2022-10-16T07:47:14;13.50;99.90
52743;DHT22;55583;53.012;6.556;2022-10-16T07:49:39;13.30;99.90
52743;DHT22;55583;53.012;6.556;2022-10-16T07:52:05;13.60;99.90
52743;DHT22;55583;53.012;6.556;2022-10-16T07:54:30;13.30;99.90
52743;DHT22;55583;53.012;6.556;2022-10-16T07:56:56;13.30;99.90
52743;DHT22;55583;53.012;6.556;2022-10-16T07:59:22;13.40;99.90
52743;DHT22;55583;53.012;6.556;2022-10-16T08:01:49;13.60;99.90
52743;DHT22;55583;53.012;6.556;2022-10-16T08:04:14;14.00;99.90
52743;DHT22;55583;53.012;6.556;2022-10-16T08:06:40;13.50;99.90
52743;DHT22;55583;53.012;6.556;2022-10-16T08:09:07;13.60;99.90
52743;DHT22;55583;53.012;6.556;2022-10-16T08:11:33;13.70;99.90
52743;DHT22;55583;53.012;6.556;2022-10-16T08:13:59;13.70;99.90
52743;DHT22;55583;53.012;6.556;2022-10-16T08:16:25;13.90;99.90
52743;DHT22;55583;53.012;6.556;2022-10-16T08:18:50;14.00;99.90
52743;DHT22;55583;53.012;6.556;2022-10-16T08:21:19;14.50;99.90
52743;DHT22;55583;53.012;6.556;2022-10-16T08:23:45;14.80;99.90
52743;DHT22;55583;53.012;6.556;2022-10-16T08:26:11;14.40;99.90
52743;DHT22;55583;53.012;6.556;2022-10-16T08:28:37;14.10;99.90
52743;DHT22;55583;53.012;6.556;2022-10-16T08:31:08;14.40;99.90
52743;DHT22;55583;53.012;6.556;2022-10-16T08:33:34;14.00;99.90
52743;DHT22;55583;53.012;6.556;2022-10-16T08:36:04;14.10;99.90
52743;DHT22;55583;53.012;6.556;2022-10-16T08:38:30;14.10;99.90
52743;DHT22;55583;53.012;6.556;2022-10-16T08:46:37;14.00;99.90
52743;DHT22;55583;53.012;6.556;2022-10-16T08:49:11;14.00;99.90
52743;DHT22;55583;53.012;6.556;2022-10-16T08:51:39;14.10;99.90
52743;DHT22;55583;53.012;6.556;2022-10-16T08:54:26;14.10;99.90
52743;DHT22;55583;53.012;6.556;2022-10-16T08:56:55;14.20;99.90
52743;DHT22;55583;53.012;6.556;2022-10-16T08:59:22;14.30;99.90
52743;DHT22;55583;53.012;6.556;2022-10-16T09:01:50;14.40;99.90
52743;DHT22;55583;53.012;6.556;2022-10-16T09:04:42;14.50;99.90
52743;DHT22;55583;53.012;6.556;2022-10-16T09:07:32;14.50;99.90
52743;DHT22;55583;53.012;6.556;2022-10-16T09:10:31;14.70;99.90
52743;DHT22;55583;53.012;6.556;2022-10-16T09:16:18;15.60;99.90
52743;DHT22;55583;53.012;6.556;2022-10-16T09:18:58;16.00;99.90
52743;DHT22;55583;53.012;6.556;2022-10-16T09:21:37;16.10;99.90
52743;DHT22;55583;53.012;6.556;2022-10-16T09:24:14;16.60;99.90
52743;DHT22;55583;53.012;6.556;2022-10-16T09:26:40;16.80;99.90
52743;DHT22;55583;53.012;6.556;2022-10-16T09:29:06;17.00;99.90
52743;DHT22;55583;53.012;6.556;2022-10-16T09:31:36;17.60;99.90
52743;DHT22;55583;53.012;6.556;2022-10-16T09:34:03;18.90;99.90
52743;DHT22;55583;53.012;6.556;2022-10-16T09:36:41;20.10;99.90
52743;DHT22;55583;53.012;6.556;2022-10-16T09:39:09;21.00;99.90
52743;DHT22;55583;53.012;6.556;2022-10-16T09:41:42;21.90;99.90
52743;DHT22;55583;53.012;6.556;2022-10-16T09:44:20;22.60;99.90
52743;DHT22;55583;53.012;6.556;2022-10-16T09:46:47;23.40;99.90
52743;DHT22;55583;53.012;6.556;2022-10-16T09:49:25;24.10;99.90
52743;DHT22;55583;53.012;6.556;2022-10-16T09:51:51;23.80;98.00
52743;DHT22;55583;53.012;6.556;2022-10-16T09:54:27;23.00;99.90
52743;DHT22;55583;53.012;6.556;2022-10-16T09:57:07;21.90;99.90
52743;DHT22;55583;53.012;6.556;2022-10-16T09:59:33;20.90;99.90
52743;DHT22;55583;53.012;6.556;2022-10-16T10:02:03;20.00;99.90
52743;DHT22;55583;53.012;6.556;2022-10-16T10:04:39;19.40;99.90
52743;DHT22;55583;53.012;6.556;2022-10-16T10:07:07;19.10;99.90
52743;DHT22;55583;53.012;6.556;2022-10-16T10:09:45;19.30;99.90
52743;DHT22;55583;53.012;6.556;2022-10-16T10:12:23;20.20;99.90
52743;DHT22;55583;53.012;6.556;2022-10-16T10:14:51;20.40;96.00
52743;DHT22;55583;53.012;6.556;2022-10-16T10:17:20;20.70;97.00
52743;DHT22;55583;53.012;6.556;2022-10-16T10:19:57;21.00;95.80
52743;DHT22;55583;53.012;6.556;2022-10-16T10:22:38;21.50;91.10
52743;DHT22;55583;53.012;6.556;2022-10-16T10:35:28;23.20;83.40
52743;DHT22;55583;53.012;6.556;2022-10-16T10:40:52;23.40;84.00
52743;DHT22;55583;53.012;6.556;2022-10-16T10:44:14;23.10;76.40
52743;DHT22;55583;53.012;6.556;2022-10-16T10:46:28;22.30;78.60
52743;DHT22;55583;53.012;6.556;2022-10-16T10:54:40;21.10;87.00
52743;DHT22;55583;53.012;6.556;2022-10-16T10:57:29;20.50;90.10
52743;DHT22;55583;53.012;6.556;2022-10-16T11:02:43;19.50;90.90
52743;DHT22;55583;53.012;6.556;2022-10-16T11:05:29;19.50;91.40
52743;DHT22;55583;53.012;6.556;2022-10-16T11:08:46;19.20;91.30
52743;DHT22;55583;53.012;6.556;2022-10-16T11:11:03;19.40;90.20
52743;DHT22;55583;53.012;6.556;2022-10-16T11:13:38;19.40;86.30
52743;DHT22;55583;53.012;6.556;2022-10-16T11:16:28;19.90;87.10
52743;DHT22;55583;53.012;6.556;2022-10-16T11:21:26;22.20;73.60
52743;DHT22;55583;53.012;6.556;2022-10-16T11:24:01;22.80;73.60
52743;DHT22;55583;53.012;6.556;2022-10-16T11:26:35;23.80;69.30
52743;DHT22;55583;53.012;6.556;2022-10-16T11:29:13;24.60;64.60
52743;DHT22;55583;53.012;6.556;2022-10-16T11:31:50;24.80;63.70
52743;DHT22;55583;53.012;6.556;2022-10-16T11:37:14;25.20;63.00
52743;DHT22;55583;53.012;6.556;2022-10-16T11:39:43;24.90;61.30
52743;DHT22;55583;53.012;6.556;2022-10-16T11:42:28;24.60;61.80
52743;DHT22;55583;53.012;6.556;2022-10-16T11:45:07;24.60;60.10
52743;DHT22;55583;53.012;6.556;2022-10-16T11:47:48;24.80;60.30
52743;DHT22;55583;53.012;6.556;2022-10-16T11:55:52;25.70;60.90
52743;DHT22;55583;53.012;6.556;2022-10-16T11:58:31;26.30;61.60
52743;DHT22;55583;53.012;6.556;2022-10-16T12:01:22;26.50;58.40
52743;DHT22;55583;53.012;6.556;2022-10-16T12:07:00;26.70;57.60
52743;DHT22;55583;53.012;6.556;2022-10-16T12:09:29;26.80;56.20
52743;DHT22;55583;53.012;6.556;2022-10-16T12:11:55;26.80;58.10
52743;DHT22;55583;53.012;6.556;2022-10-16T12:14:34;26.60;58.90
52743;DHT22;55583;53.012;6.556;2022-10-16T12:17:25;26.70;57.10
52743;DHT22;55583;53.012;6.556;2022-10-16T12:22:54;26.70;56.20
52743;DHT22;55583;53.012;6.556;2022-10-16T12:25:22;26.10;55.50
52743;DHT22;55583;53.012;6.556;2022-10-16T12:28:04;25.80;58.10
52743;DHT22;55583;53.012;6.556;2022-10-16T12:30:35;25.80;56.40
52743;DHT22;55583;53.012;6.556;2022-10-16T12:33:17;25.90;57.80
52743;DHT22;55583;53.012;6.556;2022-10-16T12:35:46;25.40;57.70
52743;DHT22;55583;53.012;6.556;2022-10-16T12:38:30;24.40;59.00
52743;DHT22;55583;53.012;6.556;2022-10-16T12:41:08;23.20;59.40
52743;DHT22;55583;53.012;6.556;2022-10-16T12:43:46;22.00;62.20
52743;DHT22;55583;53.012;6.556;2022-10-16T12:48:40;20.70;64.90
52743;DHT22;55583;53.012;6.556;2022-10-16T12:51:25;20.40;66.30
52743;DHT22;55583;53.012;6.556;2022-10-16T12:54:02;20.00;66.90
52743;DHT22;55583;53.012;6.556;2022-10-16T13:22:19;23.80;60.50
52743;DHT22;55583;53.012;6.556;2022-10-16T13:27:54;23.60;61.00
52743;DHT22;55583;53.012;6.556;2022-10-16T13:30:26;23.60;59.40
52743;DHT22;55583;53.012;6.556;2022-10-16T13:33:35;23.60;59.80
52743;DHT22;55583;53.012;6.556;2022-10-16T13:36:03;23.50;57.00
52743;DHT22;55583;53.012;6.556;2022-10-16T13:38:31;23.20;59.40
52743;DHT22;55583;53.012;6.556;2022-10-16T13:40:59;23.00;59.40
52743;DHT22;55583;53.012;6.556;2022-10-16T13:43:44;22.90;59.80
52743;DHT22;55583;53.012;6.556;2022-10-16T13:46:22;23.00;59.80
52743;DHT22;55583;53.012;6.556;2022-10-16T13:49:02;22.90;58.90
52743;DHT22;55583;53.012;6.556;2022-10-16T13:51:30;22.80;60.00
52743;DHT22;55583;53.012;6.556;2022-10-16T13:53:57;22.70;60.20
52743;DHT22;55583;53.012;6.556;2022-10-16T13:56:27;22.70;60.60
52743;DHT22;55583;53.012;6.556;2022-10-16T14:01:34;22.20;61.30
52743;DHT22;55583;53.012;6.556;2022-10-16T14:04:07;21.80;62.90
52743;DHT22;55583;53.012;6.556;2022-10-16T14:06:35;21.40;62.90
52743;DHT22;55583;53.012;6.556;2022-10-16T14:09:25;21.00;63.80
52743;DHT22;55583;53.012;6.556;2022-10-16T14:12:06;20.70;65.00
52743;DHT22;55583;53.012;6.556;2022-10-16T14:14:54;20.40;65.40
52743;DHT22;55583;53.012;6.556;2022-10-16T14:17:27;20.10;66.80
52743;DHT22;55583;53.012;6.556;2022-10-16T14:19:58;19.90;67.40
52743;DHT22;55583;53.012;6.556;2022-10-16T14:22:36;19.70;67.80
52743;DHT22;55583;53.012;6.556;2022-10-16T14:25:24;19.60;68.60
52743;DHT22;55583;53.012;6.556;2022-10-16T14:28:22;19.40;69.40
52743;DHT22;55583;53.012;6.556;2022-10-16T14:30:56;19.30;71.20
52743;DHT22;55583;53.012;6.556;2022-10-16T14:36:10;18.90;69.80
52743;DHT22;55583;53.012;6.556;2022-10-16T14:38:42;18.80;70.70
52743;DHT22;55583;53.012;6.556;2022-10-16T14:41:13;18.80;70.30
52743;DHT22;55583;53.012;6.556;2022-10-16T14:43:42;18.60;70.40
52743;DHT22;55583;53.012;6.556;2022-10-16T14:46:17;18.70;70.90
52743;DHT22;55583;53.012;6.556;2022-10-16T14:48:46;18.50;71.50
52743;DHT22;55583;53.012;6.556;2022-10-16T14:51:16;18.50;72.70
52743;DHT22;55583;53.012;6.556;2022-10-16T14:53:43;18.50;72.80
52743;DHT22;55583;53.012;6.556;2022-10-16T14:56:16;18.40;72.10
52743;DHT22;55583;53.012;6.556;2022-10-16T14:58:43;18.40;71.80
52743;DHT22;55583;53.012;6.556;2022-10-16T15:01:10;18.40;72.40
52743;DHT22;55583;53.012;6.556;2022-10-16T15:03:37;18.50;72.80
52743;DHT22;55583;53.012;6.556;2022-10-16T15:06:15;18.40;72.80
52743;DHT22;55583;53.012;6.556;2022-10-16T15:08:41;18.30;74.10
52743;DHT22;55583;53.012;6.556;2022-10-16T15:11:18;18.30;74.80
52743;DHT22;55583;53.012;6.556;2022-10-16T15:13:45;18.20;75.00
52743;DHT22;55583;53.012;6.556;2022-10-16T15:16:12;18.70;75.60
52743;DHT22;55583;53.012;6.556;2022-10-16T15:18:38;18.20;75.60
52743;DHT22;55583;53.012;6.556;2022-10-16T15:21:03;18.20;75.40
52743;DHT22;55583;53.012;6.556;2022-10-16T15:23:38;18.10;76.50
52743;DHT22;55583;53.012;6.556;2022-10-16T15:26:04;18.10;78.00
52743;DHT22;55583;53.012;6.556;2022-10-16T15:28:29;18.10;78.10
52743;DHT22;55583;53.012;6.556;2022-10-16T15:30:56;18.10;79.40
52743;DHT22;55583;53.012;6.556;2022-10-16T15:33:24;18.00;80.20
52743;DHT22;55583;53.012;6.556;2022-10-16T15:35:53;18.00;80.90
52743;DHT22;55583;53.012;6.556;2022-10-16T15:38:20;17.90;81.70
52743;DHT22;55583;53.012;6.556;2022-10-16T15:40:48;17.80;82.20
52743;DHT22;55583;53.012;6.556;2022-10-16T15:43:13;17.80;83.40
52743;DHT22;55583;53.012;6.556;2022-10-16T15:45:39;17.70;85.00
52743;DHT22;55583;53.012;6.556;2022-10-16T15:48:05;17.50;87.00
52743;DHT22;55583;53.012;6.556;2022-10-16T15:50:32;17.50;88.30
52743;DHT22;55583;53.012;6.556;2022-10-16T15:52:58;17.50;90.00
52743;DHT22;55583;53.012;6.556;2022-10-16T15:55:23;17.30;90.70
52743;DHT22;55583;53.012;6.556;2022-10-16T15:57:52;17.20;91.30
52743;DHT22;55583;53.012;6.556;2022-10-16T16:00:19;17.10;92.10
52743;DHT22;55583;53.012;6.556;2022-10-16T16:02:51;16.90;92.40
52743;DHT22;55583;53.012;6.556;2022-10-16T16:05:18;17.00;93.90
52743;DHT22;55583;53.012;6.556;2022-10-16T16:07:44;16.90;95.30
52743;DHT22;55583;53.012;6.556;2022-10-16T16:10:10;16.80;96.00
52743;DHT22;55583;53.012;6.556;2022-10-16T16:12:37;16.70;95.80
52743;DHT22;55583;53.012;6.556;2022-10-16T16:15:07;16.70;96.30
52743;DHT22;55583;53.012;6.556;2022-10-16T16:17:34;16.60;97.10
52743;DHT22;55583;53.012;6.556;2022-10-16T16:20:00;16.50;98.00
52743;DHT22;55583;53.012;6.556;2022-10-16T16:22:27;16.40;98.90
52743;DHT22;55583;53.012;6.556;2022-10-16T16:24:52;16.30;99.50
52743;DHT22;55583;53.012;6.556;2022-10-16T16:27:18;16.20;99.90
52743;DHT22;55583;53.012;6.556;2022-10-16T16:29:45;16.10;99.90
52743;DHT22;55583;53.012;6.556;2022-10-16T16:32:11;16.80;99.90
52743;DHT22;55583;53.012;6.556;2022-10-16T16:34:36;16.10;99.90
52743;DHT22;55583;53.012;6.556;2022-10-16T16:37:02;15.80;99.90
52743;DHT22;55583;53.012;6.556;2022-10-16T16:39:30;16.00;99.90
52743;DHT22;55583;53.012;6.556;2022-10-16T16:41:57;15.60;99.90
52743;DHT22;55583;53.012;6.556;2022-10-16T16:44:24;15.50;99.90
52743;DHT22;55583;53.012;6.556;2022-10-16T16:46:50;15.40;99.90
52743;DHT22;55583;53.012;6.556;2022-10-16T16:49:16;15.50;99.90
52743;DHT22;55583;53.012;6.556;2022-10-16T16:51:42;15.30;99.90
52743;DHT22;55583;53.012;6.556;2022-10-16T16:54:09;15.20;99.90
52743;DHT22;55583;53.012;6.556;2022-10-16T16:56:35;15.40;99.90
52743;DHT22;55583;53.012;6.556;2022-10-16T16:59:01;14.90;99.90
52743;DHT22;55583;53.012;6.556;2022-10-16T17:01:27;15.10;99.90
52743;DHT22;55583;53.012;6.556;2022-10-16T17:03:55;15.00;99.90
52743;DHT22;55583;53.012;6.556;2022-10-16T17:06:23;14.70;99.90
52743;DHT22;55583;53.012;6.556;2022-10-16T17:08:49;14.60;99.90
52743;DHT22;55583;53.012;6.556;2022-10-16T17:11:19;14.50;99.90
52743;DHT22;55583;53.012;6.556;2022-10-16T17:13:45;14.40;99.90
52743;DHT22;55583;53.012;6.556;2022-10-16T17:16:11;14.40;99.90
52743;DHT22;55583;53.012;6.556;2022-10-16T17:18:37;14.50;99.90
52743;DHT22;55583;53.012;6.556;2022-10-16T17:21:07;14.20;99.90